Air Resources Laboratory banner image
Air Resources Laboratory web site National Oceanic and Atmospheric Administration (NOAA)

ma metar


KACK 231753Z 23011KT 10SM SCT021 19/16 A2989 RMK AO2 SLP122 T01940156 10200
 20122 56004 $=
KAQW 231752Z AUTO VRB03KT 10SM CLR 23/13 A2993 RMK AO2 SLP135 T02330128 10239
 20150 58006=
KBAF 231753Z 32011G20KT 280V360 10SM FEW080 29/09 A2987 RMK AO2 SLP114
 T02890089 10289 20133 56010=
KBED 231756Z 36008KT 10SM CLR 27/13 A2984 RMK AO2 SLP115 T02720128 10272 20167
 58011=
KBOS 231754Z 11010KT 10SM FEW040 FEW250 21/14 A2986 RMK AO2 SLP110 T02110139
 10239 20167 58005=
KBVY 231753Z 14012KT 10SM FEW035 22/14 A2985 RMK AO2 SLP102 T02170144 10250
 20167 58007=
KCEF 231756Z 35006KT 10SM FEW030 FEW250 27/11 A2987 RMK AO2A SLP120 T02700110
 10270 20146 57010=
KCQX 231752Z AUTO VRB05KT 10SM CLR 22/13 A2989 RMK AO2 SLP123 T02170128 10222
 20150 53001 TSNO=
KEWB 231753Z 18007KT 10SM SCT042 23/17 A2987 RMK AO2 SLP114 T02330167 10244
 20139 55005=
KFIT 231752Z AUTO 32012KT 10SM CLR 28/08 A2986 RMK AO2 SLP110 T02780083 10278
 20172 58013=
KFMH 231755Z AUTO 00000KT 10SM BKN030 BKN034 21/15 A2989 RMK AO2 LTG DSNT S=
KHYA 231756Z 36006KT 10SM CLR 21/13 A2987 RMK AO2 SLP117 T02110133 10211 20144
 53000=
KLWM 231754Z VRB03KT 10SM CLR 27/13 A2986 RMK AO2 SLP111 T02670133 10267 20178
 58011=
KMQE 231756Z AUTO 33010G15KT 300V030 25/12 A2986 RMK AO1 SLP121 T02500122 10250
 20144 58004=
KMVY 231753Z 30007KT 10SM FEW028 23/15 A2989 RMK AO2 SLP120 T02330150 10233
 20139 55005=
KORE 231752Z AUTO 33014G21KT 10SM CLR 27/08 A2989 RMK AO2 SLP119 T02720083
 10272 20144 56010=
KORH 231754Z 32006G14KT 10SM CLR 26/09 A2989 RMK AO2 SLP120 T02560094 10256
 20144 58006=
KOWD 231753Z 34006KT 10SM CLR 27/12 A2985 RMK AO2 SLP109 T02720122 10272 20172
 58006=
KPSF 231754Z AUTO 30008G19KT 270V340 10SM CLR 23/12 A2994 RMK AO2 SLP119
 T02330122 10233 20144 56003=
KPVC 231756Z AUTO 36004KT 10SM CLR 19/13 A2989 RMK AO2 SLP120 T01940128 10194
 20133 58000=
KPYM 231752Z AUTO 04004KT 10SM CLR 24/14 A2987 RMK AO2 SLP115 60000 T02390144
 10239 20144 58002=
KTAN 231752Z AUTO 00000KT 10SM FEW047 26/13 A2986 RMK AO2 SLP109 T02610128
 10261 20150 58005=